createdAt,value
2022-07-31T00:00:43.677Z,18.27
2022-07-31T00:03:11.914Z,18.28
2022-07-31T00:05:41.885Z,18.31
2022-07-31T00:08:10.687Z,18.30
2022-07-31T00:10:38.721Z,18.40
2022-07-31T00:13:06.668Z,18.47
2022-07-31T00:15:34.629Z,18.57
2022-07-31T00:18:02.495Z,18.59
2022-07-31T00:20:30.401Z,18.60
2022-07-31T00:23:00.178Z,18.67
2022-07-31T00:25:28.377Z,18.61
2022-07-31T00:27:56.278Z,18.66
2022-07-31T00:30:24.250Z,18.73
2022-07-31T00:32:52.201Z,18.75
2022-07-31T00:35:20.476Z,18.77
2022-07-31T00:37:48.472Z,18.72
2022-07-31T00:40:18.900Z,18.76
2022-07-31T00:42:46.966Z,18.81
2022-07-31T00:45:14.944Z,18.80
2022-07-31T00:47:43.723Z,18.70
2022-07-31T00:50:12.898Z,18.60
2022-07-31T00:52:41.836Z,18.61
2022-07-31T00:55:10.659Z,18.67
2022-07-31T00:57:39.921Z,18.68
2022-07-31T01:00:09.210Z,18.71
2022-07-31T01:02:38.429Z,18.69
2022-07-31T01:05:14.635Z,18.75
2022-07-31T01:07:42.561Z,18.74
2022-07-31T01:10:12.391Z,18.72
2022-07-31T01:12:54.219Z,18.71
2022-07-31T01:15:24.397Z,18.85
2022-07-31T01:17:53.428Z,18.76
2022-07-31T01:20:21.539Z,18.74
2022-07-31T01:23:04.000Z,18.73
2022-07-31T01:25:41.652Z,18.77
2022-07-31T01:28:24.642Z,18.76
2022-07-31T01:31:17.130Z,18.79
2022-07-31T01:33:50.594Z,18.72
2022-07-31T01:36:23.991Z,18.55
2022-07-31T01:38:55.623Z,18.40
2022-07-31T01:41:30.193Z,18.25
2022-07-31T01:43:59.932Z,18.20
2022-07-31T01:46:30.748Z,18.05
2022-07-31T01:49:07.518Z,17.98
2022-07-31T01:51:37.133Z,17.87
2022-07-31T01:54:05.263Z,17.83
2022-07-31T01:56:34.643Z,17.76
2022-07-31T01:59:03.641Z,17.76
2022-07-31T02:01:34.459Z,17.78
2022-07-31T02:04:04.213Z,17.76
2022-07-31T02:06:32.897Z,17.68
2022-07-31T02:09:02.071Z,17.68
2022-07-31T02:11:30.422Z,17.75
2022-07-31T02:14:01.238Z,17.76
2022-07-31T02:16:30.066Z,17.84
2022-07-31T02:19:02.006Z,17.90
2022-07-31T02:21:29.956Z,17.83
2022-07-31T02:23:58.074Z,17.85
2022-07-31T02:26:28.714Z,17.80
2022-07-31T02:28:57.820Z,17.79
2022-07-31T02:31:26.109Z,17.69
2022-07-31T02:33:55.040Z,17.65
2022-07-31T02:36:25.786Z,17.61
2022-07-31T02:38:55.241Z,17.55
2022-07-31T02:41:24.900Z,17.54
2022-07-31T02:43:53.708Z,17.56
2022-07-31T02:46:23.129Z,17.51
2022-07-31T02:48:52.220Z,17.48
2022-07-31T02:51:20.493Z,17.56
2022-07-31T02:53:50.518Z,17.59
2022-07-31T02:56:19.391Z,17.62
2022-07-31T02:58:47.579Z,17.72
2022-07-31T03:01:15.806Z,17.80
2022-07-31T03:03:44.469Z,17.80
2022-07-31T03:06:12.832Z,17.73
2022-07-31T03:08:40.701Z,17.71
2022-07-31T03:11:10.174Z,17.67
2022-07-31T03:13:39.484Z,17.65
2022-07-31T03:16:11.361Z,17.70
2022-07-31T03:18:40.782Z,17.80
2022-07-31T03:21:11.074Z,17.80
2022-07-31T03:23:39.596Z,17.76
2022-07-31T03:26:09.796Z,17.73
2022-07-31T03:28:37.853Z,17.77
2022-07-31T03:31:07.834Z,17.63
2022-07-31T03:33:35.906Z,17.51
2022-07-31T03:36:04.528Z,17.38
2022-07-31T03:38:40.946Z,17.23
2022-07-31T03:41:11.849Z,17.23
2022-07-31T03:43:46.954Z,17.25
2022-07-31T03:46:17.977Z,17.34
2022-07-31T03:48:46.593Z,17.41
2022-07-31T03:51:15.201Z,17.41
2022-07-31T03:53:43.889Z,17.34
2022-07-31T03:56:14.173Z,17.40
2022-07-31T03:58:42.369Z,17.47
2022-07-31T04:01:16.689Z,17.46
2022-07-31T04:03:48.645Z,17.48
2022-07-31T04:06:16.573Z,17.39
2022-07-31T04:08:44.446Z,17.41
2022-07-31T04:11:14.649Z,17.42
2022-07-31T04:13:43.167Z,17.58
2022-07-31T04:16:11.051Z,17.54
2022-07-31T04:18:38.940Z,17.65
2022-07-31T04:21:06.828Z,17.62
2022-07-31T04:23:34.709Z,17.70
2022-07-31T04:26:02.714Z,17.72
2022-07-31T04:28:32.029Z,17.71
2022-07-31T04:30:59.921Z,17.77
2022-07-31T04:33:27.925Z,17.80
2022-07-31T04:35:55.854Z,17.78
2022-07-31T04:38:23.825Z,17.94
2022-07-31T04:40:51.740Z,18.11
2022-07-31T04:43:19.657Z,18.30
2022-07-31T04:45:48.916Z,18.39
2022-07-31T04:48:16.909Z,18.16
2022-07-31T04:50:44.882Z,18.28
2022-07-31T04:53:12.769Z,18.26
2022-07-31T04:55:40.736Z,18.05
2022-07-31T04:58:08.653Z,18.07
2022-07-31T05:00:36.643Z,18.19
2022-07-31T05:03:07.249Z,18.21
2022-07-31T05:05:35.165Z,18.23
2022-07-31T05:08:03.441Z,18.48
2022-07-31T05:10:48.791Z,18.55
2022-07-31T05:13:16.800Z,18.51
2022-07-31T05:15:44.752Z,18.68
2022-07-31T05:18:14.433Z,18.83
2022-07-31T05:20:42.717Z,18.90
2022-07-31T05:23:10.669Z,19.00
2022-07-31T05:25:38.576Z,18.83
2022-07-31T05:28:09.697Z,19.19
2022-07-31T05:30:40.046Z,19.27
2022-07-31T05:33:08.088Z,19.46
2022-07-31T05:35:40.588Z,19.47
2022-07-31T05:38:11.908Z,19.10
2022-07-31T05:40:39.917Z,19.52
2022-07-31T05:43:07.865Z,19.60
2022-07-31T05:45:35.769Z,19.86
2022-07-31T05:48:04.008Z,20.15
2022-07-31T05:50:31.907Z,20.33
2022-07-31T05:53:01.352Z,20.79
2022-07-31T05:55:29.317Z,21.17
2022-07-31T05:57:57.184Z,21.07
2022-07-31T06:00:25.090Z,21.60
2022-07-31T06:02:53.007Z,21.57
2022-07-31T06:05:20.884Z,21.13
2022-07-31T06:07:51.335Z,20.84
2022-07-31T06:10:22.168Z,20.52
2022-07-31T06:12:50.938Z,19.92
2022-07-31T06:15:18.932Z,20.35
2022-07-31T06:17:47.529Z,20.30
2022-07-31T06:20:15.559Z,20.46
2022-07-31T06:22:44.918Z,21.03
2022-07-31T06:25:16.546Z,20.88
2022-07-31T06:27:48.743Z,21.33
2022-07-31T06:30:23.008Z,22.34
2022-07-31T06:32:51.105Z,23.85
2022-07-31T06:35:19.042Z,24.29
2022-07-31T06:37:47.027Z,23.91
2022-07-31T06:40:15.254Z,23.27
2022-07-31T06:42:46.419Z,23.73
2022-07-31T06:45:29.906Z,24.36
2022-07-31T06:48:02.449Z,23.42
2022-07-31T06:50:30.344Z,24.66
2022-07-31T06:52:58.229Z,24.21
2022-07-31T06:55:26.403Z,24.73
2022-07-31T06:57:56.041Z,25.76
2022-07-31T07:00:24.354Z,26.14
2022-07-31T07:02:52.331Z,26.77
2022-07-31T07:05:21.590Z,26.24
2022-07-31T07:07:49.555Z,26.34
2022-07-31T07:10:17.537Z,24.99
2022-07-31T07:12:45.538Z,24.34
2022-07-31T07:15:16.955Z,23.98
2022-07-31T07:17:44.835Z,24.02
2022-07-31T07:20:13.805Z,24.58
2022-07-31T07:22:41.924Z,25.73
2022-07-31T07:25:09.988Z,26.81
2022-07-31T07:27:37.856Z,26.40
2022-07-31T07:30:06.897Z,26.04
2022-07-31T07:32:36.258Z,26.54
2022-07-31T07:35:05.090Z,26.32
2022-07-31T07:37:39.077Z,27.02
2022-07-31T07:40:09.516Z,26.14
2022-07-31T07:42:37.427Z,26.33
2022-07-31T07:45:07.836Z,26.82
2022-07-31T07:48:02.316Z,27.35
2022-07-31T07:50:29.122Z,28.06
2022-07-31T07:52:57.740Z,28.01
2022-07-31T07:55:26.430Z,27.09
2022-07-31T07:57:55.000Z,25.39
2022-07-31T08:00:24.439Z,24.68
2022-07-31T08:03:46.788Z,24.48
2022-07-31T08:05:43.070Z,24.96
2022-07-31T08:08:11.127Z,25.40
2022-07-31T08:10:40.420Z,25.06
2022-07-31T08:13:08.343Z,25.06
2022-07-31T08:15:36.424Z,25.55
2022-07-31T08:18:08.295Z,24.89
2022-07-31T08:20:38.266Z,24.06
2022-07-31T08:23:06.744Z,25.05
2022-07-31T08:25:34.769Z,26.47
2022-07-31T08:28:02.656Z,26.51
2022-07-31T08:30:31.240Z,25.50
2022-07-31T08:32:59.392Z,25.51
2022-07-31T08:35:30.277Z,26.04
2022-07-31T08:38:03.842Z,26.37
2022-07-31T08:40:34.980Z,25.75
2022-07-31T08:43:31.185Z,25.01
2022-07-31T08:46:03.163Z,24.64
2022-07-31T08:48:33.754Z,25.05
2022-07-31T08:51:04.485Z,26.07
2022-07-31T08:53:37.218Z,27.19
2022-07-31T08:56:06.586Z,27.55
2022-07-31T08:58:39.080Z,28.03
2022-07-31T09:01:08.719Z,27.90
2022-07-31T09:03:36.802Z,26.55
2022-07-31T09:06:06.856Z,26.85
2022-07-31T09:08:37.350Z,26.19
2022-07-31T09:11:06.233Z,25.47
2022-07-31T09:13:35.416Z,25.15
2022-07-31T09:16:04.267Z,25.89
2022-07-31T09:18:32.254Z,26.12
2022-07-31T09:21:01.961Z,27.22
2022-07-31T09:23:32.436Z,26.59
2022-07-31T09:26:03.192Z,25.69
2022-07-31T09:28:37.040Z,25.45
2022-07-31T09:31:06.245Z,25.19
2022-07-31T09:33:34.184Z,25.47
2022-07-31T09:36:02.125Z,25.43
2022-07-31T09:38:36.179Z,25.11
2022-07-31T09:41:55.639Z,26.38
2022-07-31T09:44:10.494Z,25.89
2022-07-31T09:46:42.423Z,25.43
2022-07-31T09:49:10.864Z,25.47
2022-07-31T09:51:40.770Z,25.23
2022-07-31T09:54:21.977Z,25.73
2022-07-31T09:56:50.393Z,25.50
2022-07-31T09:59:18.610Z,25.11
2022-07-31T10:01:49.476Z,24.93
2022-07-31T10:04:19.285Z,24.94
2022-07-31T10:06:48.822Z,25.14
2022-07-31T10:09:20.248Z,25.59
2022-07-31T10:11:50.829Z,26.15
2022-07-31T10:14:23.410Z,26.91
2022-07-31T10:16:55.639Z,27.66
2022-07-31T10:19:24.416Z,27.88
2022-07-31T10:21:58.573Z,28.77
2022-07-31T10:24:29.848Z,28.71
2022-07-31T10:27:01.210Z,28.56
2022-07-31T10:29:39.851Z,28.45
2022-07-31T10:32:08.190Z,28.49
2022-07-31T10:34:37.092Z,28.84
2022-07-31T10:37:11.536Z,29.06
2022-07-31T10:39:51.556Z,28.84
2022-07-31T10:42:32.943Z,28.90
2022-07-31T10:45:06.941Z,29.36
2022-07-31T10:47:34.878Z,28.94
2022-07-31T10:50:03.042Z,29.47
2022-07-31T10:52:32.436Z,29.41
2022-07-31T10:55:02.198Z,29.23
2022-07-31T10:57:31.628Z,29.03
2022-07-31T11:00:11.882Z,29.53
2022-07-31T11:02:39.940Z,30.13
2022-07-31T11:05:13.253Z,29.71
2022-07-31T11:07:42.298Z,30.42
2022-07-31T11:10:14.736Z,30.26
2022-07-31T11:12:43.083Z,30.06
2022-07-31T11:15:25.377Z,30.27
2022-07-31T11:18:20.961Z,30.43
2022-07-31T11:20:46.947Z,29.94
2022-07-31T11:23:17.518Z,29.99
2022-07-31T11:25:47.439Z,30.22
2022-07-31T11:28:18.996Z,30.41
2022-07-31T11:30:54.511Z,29.96
2022-07-31T11:33:41.603Z,29.96
2022-07-31T11:36:12.816Z,29.80
2022-07-31T11:38:42.756Z,29.84
2022-07-31T11:41:15.172Z,30.09
2022-07-31T11:43:45.405Z,30.08
2022-07-31T11:46:13.551Z,30.14
2022-07-31T11:48:45.433Z,30.06
2022-07-31T11:51:18.888Z,30.73
2022-07-31T11:53:56.629Z,30.79
2022-07-31T11:56:28.528Z,30.85
2022-07-31T11:58:58.478Z,31.06
2022-07-31T12:01:29.094Z,31.05
2022-07-31T12:04:07.650Z,30.70
2022-07-31T12:06:37.721Z,30.66
2022-07-31T12:09:06.042Z,30.08
2022-07-31T12:11:35.461Z,29.78
2022-07-31T12:14:03.582Z,30.26
2022-07-31T12:16:41.637Z,30.28
2022-07-31T12:19:09.552Z,30.09
2022-07-31T12:21:40.581Z,30.23
2022-07-31T12:24:13.497Z,30.23
2022-07-31T12:26:50.059Z,29.68
2022-07-31T12:29:18.229Z,29.56
2022-07-31T12:31:48.061Z,29.56
2022-07-31T12:34:27.364Z,29.34
2022-07-31T12:37:00.037Z,29.29
2022-07-31T12:39:54.429Z,29.22
2022-07-31T12:42:30.349Z,29.40
2022-07-31T12:45:18.434Z,29.57
2022-07-31T12:47:51.340Z,29.88
2022-07-31T12:50:20.910Z,29.16
2022-07-31T12:52:49.319Z,29.05
2022-07-31T12:55:17.795Z,29.03
2022-07-31T12:57:51.271Z,28.73
2022-07-31T13:00:20.241Z,29.06
2022-07-31T13:02:48.148Z,28.81
2022-07-31T13:05:16.047Z,28.69
2022-07-31T13:07:44.142Z,28.54
2022-07-31T13:10:14.850Z,28.38
2022-07-31T13:12:51.406Z,28.23
2022-07-31T13:15:20.810Z,28.07
2022-07-31T13:17:51.161Z,28.04
2022-07-31T13:20:19.339Z,27.79
2022-07-31T13:22:47.379Z,27.62
2022-07-31T13:25:15.287Z,27.55
2022-07-31T13:27:43.325Z,27.39
2022-07-31T13:30:14.029Z,27.18
2022-07-31T13:32:41.962Z,27.66
2022-07-31T13:35:25.391Z,27.72
2022-07-31T13:37:56.749Z,28.07
2022-07-31T13:40:44.867Z,28.99
2022-07-31T13:43:13.231Z,29.46
2022-07-31T13:45:42.887Z,29.52
2022-07-31T13:48:11.085Z,29.50
2022-07-31T13:50:39.597Z,28.19
2022-07-31T13:53:07.698Z,27.36
2022-07-31T13:55:36.314Z,27.34
2022-07-31T13:58:04.268Z,27.23
2022-07-31T14:00:32.475Z,27.19
2022-07-31T14:03:01.962Z,27.24
2022-07-31T14:05:29.891Z,27.16
2022-07-31T14:08:33.060Z,27.22
2022-07-31T14:10:53.797Z,27.21
2022-07-31T14:13:22.917Z,26.93
2022-07-31T14:15:50.953Z,26.88
2022-07-31T14:18:20.237Z,26.93
2022-07-31T14:20:48.160Z,27.03
2022-07-31T14:23:16.026Z,26.82
2022-07-31T14:25:44.064Z,26.89
2022-07-31T14:28:11.995Z,27.00
2022-07-31T14:30:46.061Z,26.96
2022-07-31T14:33:14.896Z,26.89
2022-07-31T14:38:09.383Z,27.12
2022-07-31T14:40:37.895Z,26.79
2022-07-31T14:43:05.897Z,26.96
2022-07-31T14:45:42.925Z,26.95
2022-07-31T14:48:19.891Z,26.95
2022-07-31T14:50:47.777Z,26.83
2022-07-31T14:53:17.092Z,26.87
2022-07-31T14:55:45.180Z,26.91
2022-07-31T14:58:13.056Z,27.04
2022-07-31T15:00:40.929Z,26.52
2022-07-31T15:03:08.845Z,26.85
2022-07-31T15:06:39.868Z,26.92
2022-07-31T15:08:25.974Z,26.89
2022-07-31T15:10:53.876Z,26.81
2022-07-31T15:13:22.958Z,26.80
2022-07-31T15:15:50.844Z,26.69
2022-07-31T15:18:18.707Z,26.72
2022-07-31T15:20:47.024Z,26.69
2022-07-31T15:23:14.904Z,26.61
2022-07-31T15:25:44.151Z,26.49
2022-07-31T15:28:12.238Z,26.64
2022-07-31T15:30:40.130Z,26.31
2022-07-31T15:33:08.033Z,26.58
2022-07-31T15:35:35.966Z,26.51
2022-07-31T15:38:03.837Z,26.66
2022-07-31T15:40:31.760Z,26.69
2022-07-31T15:43:03.268Z,26.30
2022-07-31T15:45:31.244Z,26.65
2022-07-31T15:47:59.150Z,26.59
2022-07-31T15:50:27.025Z,26.61
2022-07-31T15:52:54.938Z,26.60
2022-07-31T15:55:22.943Z,26.56
2022-07-31T15:57:50.805Z,26.36
2022-07-31T16:00:21.802Z,26.29
2022-07-31T16:02:50.623Z,26.50
2022-07-31T16:05:21.748Z,26.46
2022-07-31T16:08:31.473Z,26.36
2022-07-31T16:10:54.911Z,26.25
2022-07-31T16:13:23.480Z,26.32
2022-07-31T16:15:53.463Z,26.06
2022-07-31T16:18:22.415Z,25.95
2022-07-31T16:20:50.329Z,26.22
2022-07-31T16:23:18.389Z,26.12
2022-07-31T16:25:46.691Z,26.23
2022-07-31T16:28:15.078Z,26.11
2022-07-31T16:30:43.837Z,25.88
2022-07-31T16:33:13.306Z,26.11
2022-07-31T16:35:41.673Z,26.12
2022-07-31T16:38:09.583Z,25.96
2022-07-31T16:40:37.496Z,26.00
2022-07-31T16:43:50.422Z,25.99
2022-07-31T16:45:56.243Z,26.01
2022-07-31T16:48:25.585Z,26.01
2022-07-31T16:50:54.957Z,25.67
2022-07-31T16:54:09.916Z,25.92
2022-07-31T16:56:13.989Z,25.57
2022-07-31T16:58:42.255Z,25.79
2022-07-31T17:01:53.185Z,25.73
2022-07-31T17:04:03.456Z,25.68
2022-07-31T17:06:36.507Z,25.66
2022-07-31T17:09:17.373Z,25.62
2022-07-31T17:11:48.195Z,25.63
2022-07-31T17:14:19.884Z,25.65
2022-07-31T17:16:49.610Z,25.56
2022-07-31T17:19:36.720Z,25.57
2022-07-31T17:22:11.788Z,25.46
2022-07-31T17:24:50.353Z,25.41
2022-07-31T17:27:19.298Z,25.28
2022-07-31T17:29:47.333Z,25.30
2022-07-31T17:32:17.131Z,25.23
2022-07-31T17:34:49.063Z,25.14
2022-07-31T17:37:18.223Z,25.12
2022-07-31T17:39:46.186Z,24.97
2022-07-31T17:42:14.257Z,25.00
2022-07-31T17:44:46.545Z,24.95
2022-07-31T17:47:19.213Z,24.87
2022-07-31T17:49:48.949Z,24.82
2022-07-31T17:52:16.959Z,24.82
2022-07-31T17:54:44.891Z,24.72
2022-07-31T17:57:12.776Z,24.64
2022-07-31T17:59:40.646Z,24.64
2022-07-31T18:02:09.032Z,23.58
2022-07-31T18:04:38.195Z,24.50
2022-07-31T18:07:09.072Z,24.47
2022-07-31T18:09:37.607Z,24.38
2022-07-31T18:12:06.248Z,24.33
2022-07-31T18:14:34.347Z,24.32
2022-07-31T18:17:02.353Z,24.08
2022-07-31T18:19:30.365Z,24.25
2022-07-31T18:21:58.363Z,24.21
2022-07-31T18:24:27.693Z,24.14
2022-07-31T18:26:55.561Z,24.14
2022-07-31T18:29:23.615Z,24.14
2022-07-31T18:31:51.536Z,24.04
2022-07-31T18:34:19.588Z,24.04
2022-07-31T18:36:52.918Z,24.02
2022-07-31T18:39:23.077Z,23.99
2022-07-31T18:41:52.398Z,23.83
2022-07-31T18:44:22.904Z,23.69
2022-07-31T18:46:50.988Z,23.96
2022-07-31T18:50:59.132Z,23.87
2022-07-31T18:52:08.950Z,23.80
2022-07-31T18:54:37.157Z,23.78
2022-07-31T18:57:07.782Z,23.69
2022-07-31T18:59:35.863Z,23.66
2022-07-31T19:02:04.602Z,23.60
2022-07-31T19:04:34.065Z,23.52
2022-07-31T19:07:01.940Z,23.45
2022-07-31T19:09:30.457Z,23.06
2022-07-31T19:11:58.980Z,23.48
2022-07-31T19:14:28.320Z,23.45
2022-07-31T19:16:59.793Z,23.43
2022-07-31T19:19:42.546Z,23.43
2022-07-31T19:22:15.732Z,22.98
2022-07-31T19:24:43.850Z,23.19
2022-07-31T19:27:11.788Z,23.26
2022-07-31T19:29:41.113Z,23.23
2022-07-31T19:32:09.069Z,23.21
2022-07-31T19:34:36.968Z,23.20
2022-07-31T19:37:05.607Z,23.12
2022-07-31T19:39:37.825Z,23.09
2022-07-31T19:42:11.781Z,22.98
2022-07-31T19:44:41.628Z,22.95
2022-07-31T19:47:09.585Z,22.94
2022-07-31T19:49:38.474Z,23.00
2022-07-31T19:52:07.784Z,22.29
2022-07-31T19:54:36.029Z,22.92
2022-07-31T19:57:03.940Z,22.72
2022-07-31T19:59:32.088Z,22.66
2022-07-31T20:02:01.369Z,22.76
2022-07-31T20:04:29.754Z,22.73
2022-07-31T20:06:57.615Z,22.81
2022-07-31T20:09:25.718Z,22.66
2022-07-31T20:11:53.621Z,22.69
2022-07-31T20:14:21.480Z,22.61
2022-07-31T20:16:49.412Z,22.53
2022-07-31T20:19:18.725Z,22.46
2022-07-31T20:21:46.626Z,22.42
2022-07-31T20:24:14.670Z,22.45
2022-07-31T20:26:42.546Z,22.35
2022-07-31T20:29:10.479Z,22.24
2022-07-31T20:31:38.537Z,22.39
2022-07-31T20:34:06.376Z,22.38
2022-07-31T20:36:35.666Z,22.30
2022-07-31T20:39:03.591Z,22.27
2022-07-31T20:41:31.452Z,22.15
2022-07-31T20:43:59.819Z,22.04
2022-07-31T20:46:28.703Z,22.10
2022-07-31T20:48:57.309Z,21.89
2022-07-31T20:51:25.232Z,22.15
2022-07-31T20:53:54.983Z,22.07
2022-07-31T20:56:23.385Z,21.82
2022-07-31T20:58:52.116Z,21.58
2022-07-31T21:01:21.271Z,21.90
2022-07-31T21:03:50.190Z,21.50
2022-07-31T21:06:19.345Z,21.95
2022-07-31T21:08:47.429Z,21.85
2022-07-31T21:11:16.760Z,21.78
2022-07-31T21:13:45.457Z,21.75
2022-07-31T21:16:13.575Z,21.80
2022-07-31T21:18:43.535Z,21.82
2022-07-31T21:21:11.699Z,21.73
2022-07-31T21:23:39.632Z,21.73
2022-07-31T21:26:08.694Z,21.73
2022-07-31T21:28:39.546Z,21.75
2022-07-31T21:31:07.997Z,21.72
2022-07-31T21:33:36.372Z,21.64
2022-07-31T21:36:05.924Z,21.70
2022-07-31T21:38:35.991Z,21.50
2022-07-31T21:41:04.292Z,21.76
2022-07-31T21:43:41.229Z,21.73
2022-07-31T21:46:23.759Z,21.68
2022-07-31T21:48:52.405Z,21.64
2022-07-31T21:51:20.846Z,21.58
2022-07-31T21:53:48.720Z,21.63
2022-07-31T21:56:17.247Z,21.30
2022-07-31T21:58:45.329Z,21.54
2022-07-31T22:01:15.066Z,21.47
2022-07-31T22:03:44.539Z,21.34
2022-07-31T22:06:29.580Z,21.30
2022-07-31T22:08:57.452Z,21.29
2022-07-31T22:11:25.344Z,21.26
2022-07-31T22:13:53.223Z,21.13
2022-07-31T22:16:21.099Z,20.98
2022-07-31T22:18:50.964Z,20.83
2022-07-31T22:21:19.905Z,20.81
2022-07-31T22:23:48.092Z,20.81
2022-07-31T22:26:16.659Z,20.83
2022-07-31T22:28:45.227Z,20.91
2022-07-31T22:31:13.617Z,20.82
2022-07-31T22:33:41.696Z,20.80
2022-07-31T22:36:11.349Z,20.72
2022-07-31T22:38:40.556Z,20.48
2022-07-31T22:41:09.188Z,20.72
2022-07-31T22:44:14.094Z,20.72
2022-07-31T22:46:26.017Z,20.59
2022-07-31T22:48:55.404Z,20.38
2022-07-31T22:51:24.880Z,20.48
2022-07-31T22:53:52.772Z,20.53
2022-07-31T22:56:20.757Z,20.48
2022-07-31T22:58:48.612Z,20.51
2022-07-31T23:01:16.499Z,20.52
2022-07-31T23:03:44.396Z,20.39
2022-07-31T23:06:31.337Z,20.20
2022-07-31T23:09:02.355Z,20.00
2022-07-31T23:11:30.482Z,20.44
2022-07-31T23:13:58.450Z,20.53
2022-07-31T23:16:26.370Z,20.56
2022-07-31T23:18:54.511Z,20.67
2022-07-31T23:21:22.547Z,20.71
2022-07-31T23:23:50.590Z,20.63
2022-07-31T23:26:20.580Z,20.66
2022-07-31T23:28:49.188Z,20.49
2022-07-31T23:31:17.331Z,20.47
2022-07-31T23:33:46.983Z,20.60
2022-07-31T23:36:15.314Z,20.59
2022-07-31T23:38:44.084Z,20.44
2022-07-31T23:41:11.971Z,20.63
2022-07-31T23:43:40.634Z,20.66
2022-07-31T23:46:10.212Z,20.71
2022-07-31T23:48:39.376Z,20.57
2022-07-31T23:51:07.407Z,20.21
2022-07-31T23:53:35.310Z,20.10
2022-07-31T23:56:03.178Z,19.97
2022-07-31T23:58:32.639Z,19.95
